Flag for USA

Past Weather in 31°33'15.9"N, 91°23'15.0"W, USA — Yesterday and Last 2 Weeks

Currently: 65 °F. Partly sunny. (Weather station: McComb / Pike County Airport, USA). See more current weather

Past Weather in 31°33'15.9"N, 91°23'15.0"W — Graph

°F

31°33'15.9"N, 91°23'15.0"W Temperature Yesterday

Maximum temperature yesterday: 79 °F (at 2:53 pm)
Minimum temperature yesterday: 47 °F (at 2:53 am)
Average temperature yesterday: 64 °F

High & Low Weather Summary for the Past Weeks

 TemperatureHumidityPressure
High79 °F (Feb 26, 2:53 pm)100% (Feb 15, 7:00 am)30.30 "Hg (Feb 15, 7:00 am)
Low26 °F (Feb 19, 5:53 am)17% (Feb 24, 1:53 pm)29.73 "Hg (Feb 12, 6:53 am)
Average54 °F68%30.07 "Hg
* Reported Feb 12 6:53 am — Feb 27 6:53 am, 31°33'15.9"N, 91°23'15.0"W. Weather by CustomWeather, © 2024

Note: Actual official high and low records may vary slightly from our data, if they occured in-between our weather recording intervals... More about our weather records

31°33'15.9"N, 91°23'15.0"W Weather History for the Previous 24 Hours

Scroll right to see more
 ConditionsComfort  
Time TempWeatherWind HumidityBarometerVisibility
6:53 am
Tue, Feb 27
65 °FPartly sunny.12 mph87%29.88 "Hg10 mi
5:53 am64 °FPassing clouds.10 mph90%29.87 "Hg10 mi
4:53 am63 °FMostly cloudy.9 mph93%29.87 "Hg10 mi
3:53 am63 °FOvercast.10 mph93%29.87 "Hg10 mi
2:53 am64 °FOvercast.9 mph90%29.88 "Hg10 mi
2:08 am64 °FMostly cloudy.12 mph90%29.91 "Hg10 mi
1:53 am64 °FOvercast.12 mph90%29.90 "Hg10 mi
1:25 am64 °FOvercast.14 mph90%29.92 "Hg10 mi
12:53 am64 °FOvercast.10 mph90%29.90 "Hg10 mi
12:39 am64 °FPassing clouds.12 mph90%29.93 "Hg10 mi
12:17 am64 °FPassing clouds.13 mph90%29.92 "Hg10 mi
11:53 pm
Mon, Feb 26
64 °FPassing clouds.10 mph87%29.92 "Hg10 mi
10:53 pm65 °FOvercast.12 mph81%29.94 "Hg10 mi
10:03 pm65 °FPassing clouds.10 mph85%29.97 "Hg10 mi
9:53 pm64 °FPassing clouds.10 mph84%29.95 "Hg10 mi
8:53 pm66 °FClear.13 mph78%29.94 "Hg10 mi
7:53 pm67 °FClear.9 mph73%29.93 "Hg10 mi
6:53 pm70 °FClear.13 mph64%29.92 "Hg10 mi
4:53 pm76 °FSunny.15 mph52%29.92 "Hg10 mi
3:53 pm79 °FSunny.10 mph45%29.91 "Hg10 mi
2:53 pm79 °FSunny.14 mph45%29.94 "Hg10 mi
1:53 pm78 °FSunny.10 mph46%29.97 "Hg10 mi
12:53 pm78 °FPassing clouds.13 mph48%30.00 "Hg10 mi
11:53 am75 °FPassing clouds.16 mph55%30.04 "Hg10 mi
11:19 am71 °FScattered clouds.13 mph63%30.07 "Hg10 mi
10:53 am71 °FPartly sunny.13 mph63%30.07 "Hg10 mi
10:44 am70 °FPartly sunny.13 mph66%30.08 "Hg10 mi
9:53 am68 °FSunny.N/A68%30.08 "Hg10 mi
8:53 am63 °FSunny.8 mph78%30.08 "Hg10 mi
Weather by CustomWeather, © 2024

See weather overview